createdAt,value
2017-12-09T00:00:20.358Z,100212.82
2017-12-09T00:02:48.674Z,100208.80
2017-12-09T00:05:17.100Z,100217.04
2017-12-09T00:07:45.574Z,100206.45
2017-12-09T00:10:13.925Z,100202.13
2017-12-09T00:12:42.274Z,100215.41
2017-12-09T00:15:11.424Z,100203.80
2017-12-09T00:17:39.730Z,100203.91
2017-12-09T00:20:08.059Z,100199.81
2017-12-09T00:22:42.390Z,100205.20
2017-12-09T00:25:10.773Z,100206.29
2017-12-09T00:27:42.423Z,100207.89
2017-12-09T00:30:10.787Z,100217.52
2017-12-09T00:32:39.143Z,100210.09
2017-12-09T00:35:08.221Z,100217.69
2017-12-09T00:37:37.351Z,100219.05
2017-12-09T00:40:05.785Z,100223.52
2017-12-09T00:42:34.112Z,100219.00
2017-12-09T00:45:02.863Z,100216.44
2017-12-09T00:47:39.624Z,100215.69
2017-12-09T00:50:07.973Z,100209.97
2017-12-09T00:52:36.290Z,100208.73
2017-12-09T00:55:04.597Z,100205.38
2017-12-09T00:57:33.457Z,100202.05
2017-12-09T01:00:01.759Z,100204.69
2017-12-09T01:02:30.106Z,100206.22
2017-12-09T01:04:58.726Z,100204.00
2017-12-09T01:07:27.046Z,100196.95
2017-12-09T01:09:55.384Z,100206.97
2017-12-09T01:12:24.550Z,100205.77
2017-12-09T01:14:52.897Z,100203.81
2017-12-09T01:17:38.741Z,100201.72
2017-12-09T01:20:08.656Z,100198.16
2017-12-09T01:22:36.970Z,100201.17
2017-12-09T01:25:05.397Z,100201.72
2017-12-09T01:27:33.733Z,100195.52
2017-12-09T01:30:02.061Z,100188.34
2017-12-09T01:32:31.580Z,100195.59
2017-12-09T01:35:01.505Z,100188.99
2017-12-09T01:37:29.842Z,100192.38
2017-12-09T01:39:58.295Z,100191.73
2017-12-09T01:42:26.597Z,100194.28
2017-12-09T01:44:54.935Z,100191.34
2017-12-09T01:47:23.396Z,100200.13
2017-12-09T01:49:51.765Z,100200.28
2017-12-09T01:52:20.870Z,100195.16
2017-12-09T01:54:49.281Z,100200.19
2017-12-09T01:57:17.672Z,100199.94
2017-12-09T01:59:46.024Z,100191.41
2017-12-09T02:02:14.385Z,100183.41
2017-12-09T02:04:43.596Z,100186.34
2017-12-09T02:07:12.061Z,100185.41
2017-12-09T02:09:41.402Z,100185.02
2017-12-09T02:12:13.782Z,100187.50
2017-12-09T02:14:42.172Z,100183.52
2017-12-09T02:17:10.502Z,100185.01
2017-12-09T02:19:38.810Z,100179.39
2017-12-09T02:22:07.700Z,100179.09
2017-12-09T02:24:36.086Z,100180.88
2017-12-09T02:27:04.456Z,100179.26
2017-12-09T02:29:32.994Z,100185.16
2017-12-09T02:32:02.163Z,100178.62
2017-12-09T02:34:30.521Z,100169.84
2017-12-09T02:36:58.934Z,100172.13
2017-12-09T02:39:27.239Z,100170.97
2017-12-09T02:41:55.610Z,100165.86
2017-12-09T02:44:25.178Z,100173.13
2017-12-09T02:46:53.542Z,100162.77
2017-12-09T02:49:21.861Z,100173.23
2017-12-09T02:51:51.173Z,100167.52
2017-12-09T02:54:19.775Z,100169.79
2017-12-09T02:56:48.539Z,100152.83
2017-12-09T02:59:16.908Z,100168.12
2017-12-09T03:01:45.378Z,100159.86
2017-12-09T03:04:13.850Z,100146.06
2017-12-09T03:06:42.328Z,100156.50
2017-12-09T03:09:11.450Z,100156.66
2017-12-09T03:11:40.854Z,100146.85
2017-12-09T03:14:09.313Z,100156.45
2017-12-09T03:16:39.253Z,100142.53
2017-12-09T03:19:07.633Z,100144.28
2017-12-09T03:21:36.708Z,100141.63
2017-12-09T03:24:05.077Z,100140.27
2017-12-09T03:26:33.423Z,100136.67
2017-12-09T03:29:02.552Z,100134.05
2017-12-09T03:31:30.963Z,100121.08
2017-12-09T03:33:59.333Z,100116.76
2017-12-09T03:36:27.822Z,100103.80
2017-12-09T03:38:56.232Z,100104.48
2017-12-09T03:41:25.297Z,100113.81
2017-12-09T03:43:53.781Z,100106.00
2017-12-09T03:46:22.205Z,100112.39
2017-12-09T03:48:50.587Z,100111.23
2017-12-09T03:51:19.069Z,100101.52
2017-12-09T03:53:47.452Z,100108.81
2017-12-09T03:56:16.701Z,100103.89
2017-12-09T03:58:45.666Z,100104.38
2017-12-09T04:01:14.058Z,100107.89
2017-12-09T04:03:42.453Z,100101.53
2017-12-09T04:06:10.836Z,100103.36
2017-12-09T04:08:39.184Z,100093.62
2017-12-09T04:11:07.884Z,100100.09
2017-12-09T04:13:36.230Z,100104.23
2017-12-09T04:16:04.522Z,100099.11
2017-12-09T04:18:32.854Z,100101.73
2017-12-09T04:21:02.933Z,100106.00
2017-12-09T04:23:31.241Z,100107.52
2017-12-09T04:25:59.545Z,100099.09
2017-12-09T04:28:27.870Z,100100.98
2017-12-09T04:30:56.173Z,100105.42
2017-12-09T04:33:24.476Z,100099.11
2017-12-09T04:35:53.086Z,100094.52
2017-12-09T04:38:21.406Z,100097.70
2017-12-09T04:40:49.713Z,100096.12
2017-12-09T04:43:18.862Z,100109.58
2017-12-09T04:45:47.158Z,100107.25
2017-12-09T04:48:15.473Z,100103.16
2017-12-09T04:50:51.558Z,100094.45
2017-12-09T04:53:20.394Z,100103.97
2017-12-09T04:55:48.708Z,100113.42
2017-12-09T04:58:17.048Z,100106.48
2017-12-09T05:00:45.376Z,100112.46
2017-12-09T05:03:13.704Z,100109.83
2017-12-09T05:05:43.237Z,100102.95
2017-12-09T05:08:12.475Z,100079.03
2017-12-09T05:10:41.725Z,100089.66
2017-12-09T05:13:11.147Z,100087.30
2017-12-09T05:16:07.714Z,100092.68
2017-12-09T05:18:36.057Z,100105.84
2017-12-09T05:21:05.130Z,100103.62
2017-12-09T05:23:33.455Z,100112.30
2017-12-09T05:26:02.088Z,100110.45
2017-12-09T05:28:30.404Z,100113.38
2017-12-09T05:30:58.728Z,100108.47
2017-12-09T05:33:42.638Z,100108.22
2017-12-09T05:36:10.949Z,100108.77
2017-12-09T05:38:39.683Z,100092.72
2017-12-09T05:41:08.481Z,100097.66
2017-12-09T05:43:36.814Z,100100.99
2017-12-09T05:46:05.131Z,100102.53
2017-12-09T05:48:34.128Z,100101.69
2017-12-09T05:51:02.427Z,100099.94
2017-12-09T05:53:30.730Z,100101.27
2017-12-09T05:55:59.085Z,100101.36
2017-12-09T06:01:26.298Z,100100.87
2017-12-09T06:03:54.634Z,100101.59
2017-12-09T06:06:22.944Z,100099.02
2017-12-09T06:08:51.898Z,100090.55
2017-12-09T06:11:20.212Z,100093.03
2017-12-09T06:13:48.549Z,100084.23
2017-12-09T06:16:17.102Z,100090.09
2017-12-09T06:18:45.420Z,100098.16
2017-12-09T06:21:13.730Z,100081.68
2017-12-09T06:23:43.614Z,100104.09
2017-12-09T06:26:12.114Z,100110.64
2017-12-09T06:28:40.425Z,100115.06
2017-12-09T06:31:08.787Z,100109.87
2017-12-09T06:33:37.125Z,100110.53
2017-12-09T06:36:05.701Z,100113.64
2017-12-09T06:38:39.826Z,100116.53
2017-12-09T06:41:08.154Z,100117.25
2017-12-09T06:43:36.475Z,100129.84
2017-12-09T06:46:05.220Z,100124.34
2017-12-09T06:48:33.546Z,100130.11
2017-12-09T06:51:01.853Z,100139.81
2017-12-09T06:53:31.066Z,100148.15
2017-12-09T06:55:59.388Z,100142.92
2017-12-09T06:58:29.381Z,100158.60
2017-12-09T07:00:59.184Z,100157.48
2017-12-09T07:03:27.503Z,100159.11
2017-12-09T07:05:55.811Z,100151.33
2017-12-09T07:08:24.441Z,100148.13
2017-12-09T07:10:53.524Z,100129.52
2017-12-09T07:13:21.841Z,100133.64
2017-12-09T07:15:50.188Z,100114.52
2017-12-09T07:18:19.280Z,100122.54
2017-12-09T07:20:48.611Z,100128.08
2017-12-09T07:23:16.954Z,100140.89
2017-12-09T07:25:46.048Z,100136.46
2017-12-09T07:28:14.691Z,100137.62
2017-12-09T07:30:43.321Z,100149.44
2017-12-09T07:33:11.638Z,100149.64
2017-12-09T07:35:39.942Z,100147.30
2017-12-09T07:38:08.686Z,100133.15
2017-12-09T07:40:37.592Z,100136.74
2017-12-09T07:43:05.913Z,100141.28
2017-12-09T07:45:34.314Z,100148.17
2017-12-09T07:48:02.618Z,100161.16
2017-12-09T07:50:31.715Z,100166.31
2017-12-09T07:53:01.034Z,100156.59
2017-12-09T07:55:29.503Z,100166.27
2017-12-09T07:57:58.622Z,100173.59
2017-12-09T08:00:27.132Z,100168.58
2017-12-09T08:02:55.525Z,100180.61
2017-12-09T08:05:23.941Z,100176.61
2017-12-09T08:07:52.383Z,100175.98
2017-12-09T08:10:20.756Z,100200.58
2017-12-09T08:12:49.132Z,100199.44
2017-12-09T08:15:19.006Z,100200.59
2017-12-09T08:17:54.212Z,100206.41
2017-12-09T08:20:22.656Z,100225.65
2017-12-09T08:22:51.776Z,100230.31
2017-12-09T08:25:20.095Z,100239.70
2017-12-09T08:27:48.467Z,100242.56
2017-12-09T08:30:16.880Z,100246.17
2017-12-09T08:32:45.213Z,100246.89
2017-12-09T08:35:15.418Z,100242.58
2017-12-09T08:37:43.770Z,100242.03
2017-12-09T08:40:12.098Z,100243.95
2017-12-09T08:42:41.258Z,100231.86
2017-12-09T08:45:09.574Z,100237.73
2017-12-09T08:47:37.901Z,100246.19
2017-12-09T08:50:06.521Z,100244.64
2017-12-09T08:52:34.908Z,100243.14
2017-12-09T08:55:04.087Z,100250.91
2017-12-09T08:57:32.832Z,100254.44
2017-12-09T09:00:01.196Z,100249.70
2017-12-09T09:02:29.571Z,100255.02
2017-12-09T09:04:57.913Z,100258.23
2017-12-09T09:07:26.265Z,100264.99
2017-12-09T09:09:55.061Z,100264.52
2017-12-09T09:12:23.466Z,100267.28
2017-12-09T09:14:51.852Z,100259.25
2017-12-09T09:17:21.008Z,100260.73
2017-12-09T09:19:55.332Z,100269.13
2017-12-09T09:22:23.657Z,100269.22
2017-12-09T09:24:53.345Z,100270.95
2017-12-09T09:27:22.248Z,100280.86
2017-12-09T09:29:51.446Z,100295.98
2017-12-09T09:32:19.746Z,100293.30
2017-12-09T09:34:48.130Z,100284.89
2017-12-09T09:37:16.464Z,100281.72
2017-12-09T09:39:44.817Z,100279.70
2017-12-09T09:42:13.442Z,100275.94
2017-12-09T09:44:42.528Z,100284.34
2017-12-09T09:47:10.927Z,100295.64
2017-12-09T09:49:40.093Z,100299.13
2017-12-09T09:52:08.452Z,100301.77
2017-12-09T09:54:37.132Z,100298.70
2017-12-09T09:57:05.559Z,100303.37
2017-12-09T09:59:34.246Z,100300.36
2017-12-09T10:02:02.633Z,100315.86
2017-12-09T10:04:32.204Z,100313.22
2017-12-09T10:07:00.650Z,100316.98
2017-12-09T10:09:29.031Z,100310.79
2017-12-09T10:11:57.462Z,100301.41
2017-12-09T10:14:25.834Z,100301.70
2017-12-09T10:16:54.211Z,100300.03
2017-12-09T10:19:22.588Z,100295.84
2017-12-09T10:21:53.798Z,100322.67
2017-12-09T10:24:22.246Z,100329.70
2017-12-09T10:26:51.610Z,100314.60
2017-12-09T10:29:20.641Z,100309.94
2017-12-09T10:31:50.469Z,100312.41
2017-12-09T10:34:19.623Z,100321.44
2017-12-09T10:36:48.094Z,100325.83
2017-12-09T10:39:16.459Z,100322.55
2017-12-09T10:41:45.223Z,100321.39
2017-12-09T10:44:13.571Z,100321.04
2017-12-09T10:46:41.957Z,100320.57
2017-12-09T10:49:10.698Z,100310.59
2017-12-09T10:51:39.065Z,100301.43
2017-12-09T10:54:07.410Z,100302.22
2017-12-09T10:56:35.805Z,100286.59
2017-12-09T10:59:04.163Z,100284.44
2017-12-09T11:01:32.498Z,100283.30
2017-12-09T11:04:00.830Z,100286.73
2017-12-09T11:06:29.937Z,100270.94
2017-12-09T11:08:58.751Z,100276.58
2017-12-09T11:11:27.257Z,100285.30
2017-12-09T11:13:55.599Z,100291.72
2017-12-09T11:16:23.938Z,100291.50
2017-12-09T11:18:52.822Z,100296.75
2017-12-09T11:21:21.221Z,100289.38
2017-12-09T11:23:50.348Z,100293.64
2017-12-09T11:26:19.430Z,100299.73
2017-12-09T11:28:47.770Z,100300.12
2017-12-09T11:31:16.327Z,100302.42
2017-12-09T11:33:44.762Z,100314.76
2017-12-09T11:36:13.921Z,100296.41
2017-12-09T11:38:43.073Z,100301.89
2017-12-09T11:41:11.444Z,100290.48
2017-12-09T11:43:39.795Z,100290.45
2017-12-09T11:46:08.906Z,100297.25
2017-12-09T11:48:38.029Z,100291.51
2017-12-09T11:51:06.372Z,100291.87
2017-12-09T11:53:34.701Z,100299.92
2017-12-09T11:56:03.380Z,100297.50
2017-12-09T11:58:31.718Z,100301.23
2017-12-09T12:01:00.832Z,100308.55
2017-12-09T12:03:29.201Z,100309.80
2017-12-09T12:05:57.546Z,100314.48
2017-12-09T12:08:25.902Z,100320.55
2017-12-09T12:10:54.288Z,100343.44
2017-12-09T12:13:23.826Z,100347.93
2017-12-09T12:15:52.148Z,100347.83
2017-12-09T12:18:20.938Z,100335.03
2017-12-09T12:20:50.090Z,100349.88
2017-12-09T12:23:19.204Z,100359.72
2017-12-09T12:25:48.374Z,100362.91
2017-12-09T12:28:17.669Z,100354.02
2017-12-09T12:30:46.399Z,100366.92
2017-12-09T12:33:14.751Z,100373.88
2017-12-09T12:35:43.864Z,100366.91
2017-12-09T12:38:12.828Z,100363.17
2017-12-09T12:40:41.609Z,100363.45
2017-12-09T12:43:10.669Z,100360.67
2017-12-09T12:45:40.851Z,100360.93
2017-12-09T12:48:09.703Z,100369.41
2017-12-09T12:50:38.844Z,100374.09
2017-12-09T12:53:08.028Z,100368.96
2017-12-09T12:55:36.416Z,100369.19
2017-12-09T12:58:04.796Z,100367.55
2017-12-09T13:00:33.205Z,100362.96
2017-12-09T13:03:01.920Z,100359.13
2017-12-09T13:05:30.286Z,100352.52
2017-12-09T13:07:59.017Z,100363.26
2017-12-09T13:10:27.406Z,100359.15
2017-12-09T13:12:55.790Z,100358.94
2017-12-09T13:15:24.164Z,100356.25
2017-12-09T13:17:52.732Z,100351.94
2017-12-09T13:20:21.949Z,100346.91
2017-12-09T13:22:50.451Z,100346.92
2017-12-09T13:25:19.062Z,100349.22
2017-12-09T13:27:47.439Z,100345.85
2017-12-09T13:30:15.806Z,100362.50
2017-12-09T13:32:44.269Z,100352.91
2017-12-09T13:35:13.448Z,100360.00
2017-12-09T13:37:42.623Z,100361.16
2017-12-09T13:40:11.047Z,100361.28
2017-12-09T13:42:39.538Z,100360.73
2017-12-09T13:45:07.938Z,100369.65
2017-12-09T13:47:36.834Z,100369.53
2017-12-09T13:50:05.229Z,100365.26
2017-12-09T13:52:33.550Z,100356.97
2017-12-09T13:55:01.899Z,100356.58
2017-12-09T13:57:30.244Z,100349.90
2017-12-09T13:59:58.609Z,100348.02
2017-12-09T14:02:26.961Z,100347.20
2017-12-09T14:04:55.429Z,100348.80
2017-12-09T14:07:24.591Z,100352.67
2017-12-09T14:09:53.315Z,100347.85
2017-12-09T14:12:21.647Z,100343.53
2017-12-09T14:14:49.988Z,100343.69
2017-12-09T14:17:18.358Z,100348.13
2017-12-09T14:19:46.721Z,100354.22
2017-12-09T14:22:15.091Z,100372.32
2017-12-09T14:24:43.465Z,100353.31
2017-12-09T14:27:12.058Z,100358.69
2017-12-09T14:29:40.740Z,100360.62
2017-12-09T14:32:09.397Z,100365.68
2017-12-09T14:34:38.418Z,100357.70
2017-12-09T14:37:06.753Z,100363.80
2017-12-09T14:39:35.240Z,100371.20
2017-12-09T14:42:04.343Z,100368.93
2017-12-09T14:44:32.674Z,100370.44
2017-12-09T14:47:02.156Z,100370.30
2017-12-09T14:49:31.005Z,100377.41
2017-12-09T14:51:59.336Z,100373.74
2017-12-09T14:54:27.805Z,100365.86
2017-12-09T14:56:56.135Z,100364.30
2017-12-09T14:59:25.218Z,100360.42
2017-12-09T15:01:53.575Z,100370.88
2017-12-09T15:04:22.540Z,100364.73
2017-12-09T15:06:50.877Z,100360.41
2017-12-09T15:09:20.274Z,100361.88
2017-12-09T15:11:48.610Z,100357.59
2017-12-09T15:14:16.910Z,100359.86
2017-12-09T15:16:45.719Z,100364.41
2017-12-09T15:19:14.043Z,100370.12
2017-12-09T15:21:42.530Z,100372.87
2017-12-09T15:24:10.913Z,100362.55
2017-12-09T15:26:39.450Z,100358.42
2017-12-09T15:29:07.757Z,100352.42
2017-12-09T15:31:36.101Z,100348.75
2017-12-09T15:34:04.448Z,100352.48
2017-12-09T15:36:32.787Z,100352.98
2017-12-09T15:39:01.940Z,100357.25
2017-12-09T15:41:30.269Z,100359.81
2017-12-09T15:43:58.563Z,100358.23
2017-12-09T15:46:26.919Z,100357.41
2017-12-09T15:48:55.302Z,100366.15
2017-12-09T15:51:23.577Z,100370.16
2017-12-09T15:53:51.917Z,100367.25
2017-12-09T15:56:21.091Z,100372.22
2017-12-09T15:58:49.442Z,100367.27
2017-12-09T16:01:18.517Z,100362.33
2017-12-09T16:03:46.869Z,100363.55
2017-12-09T16:06:16.034Z,100360.33
2017-12-09T16:08:44.414Z,100359.09
2017-12-09T16:11:12.748Z,100363.63
2017-12-09T16:13:41.162Z,100358.38
2017-12-09T16:16:09.558Z,100351.81
2017-12-09T16:18:38.002Z,100353.02
2017-12-09T16:21:06.927Z,100349.64
2017-12-09T16:23:35.572Z,100347.38
2017-12-09T16:26:14.762Z,100350.65
2017-12-09T16:28:43.179Z,100341.42
2017-12-09T16:31:12.333Z,100333.95
2017-12-09T16:33:40.648Z,100347.09
2017-12-09T16:36:09.792Z,100349.33
2017-12-09T16:38:38.979Z,100351.97
2017-12-09T16:41:07.328Z,100352.23
2017-12-09T16:43:36.638Z,100348.91
2017-12-09T16:46:05.917Z,100356.50
2017-12-09T16:48:35.017Z,100355.23
2017-12-09T16:51:04.146Z,100358.02
2017-12-09T16:53:32.519Z,100344.56
2017-12-09T16:56:00.844Z,100347.34
2017-12-09T16:58:29.202Z,100354.48
2017-12-09T17:00:57.710Z,100362.86
2017-12-09T17:03:26.040Z,100368.63
2017-12-09T17:05:54.775Z,100362.27
2017-12-09T17:08:23.086Z,100360.09
2017-12-09T17:10:52.283Z,100360.61
2017-12-09T17:13:20.647Z,100353.30
2017-12-09T17:15:48.983Z,100357.58
2017-12-09T17:18:17.316Z,100354.45
2017-12-09T17:20:46.501Z,100360.57
2017-12-09T17:23:14.986Z,100353.13
2017-12-09T17:25:44.706Z,100346.85
2017-12-09T17:28:14.304Z,100346.68
2017-12-09T17:30:42.655Z,100352.81
2017-12-09T17:33:10.996Z,100355.08
2017-12-09T17:35:39.398Z,100355.59
2017-12-09T17:38:07.746Z,100369.22
2017-12-09T17:40:37.123Z,100364.73
2017-12-09T17:43:05.498Z,100371.08
2017-12-09T17:45:33.849Z,100360.86
2017-12-09T17:48:03.229Z,100355.45
2017-12-09T17:50:32.070Z,100352.11
2017-12-09T17:53:01.155Z,100358.87
2017-12-09T17:55:29.474Z,100349.37
2017-12-09T17:57:57.887Z,100352.72
2017-12-09T18:00:26.213Z,100347.77
2017-12-09T18:02:54.548Z,100341.48
2017-12-09T18:05:23.002Z,100336.89
2017-12-09T18:07:52.333Z,100339.35
2017-12-09T18:10:20.649Z,100333.67
2017-12-09T18:12:50.047Z,100339.33
2017-12-09T18:15:18.379Z,100338.63
2017-12-09T18:17:47.063Z,100335.63
2017-12-09T18:20:15.513Z,100333.69
2017-12-09T18:22:43.854Z,100336.92
2017-12-09T18:25:12.197Z,100342.47
2017-12-09T18:27:40.580Z,100339.45
2017-12-09T18:30:08.882Z,100342.20
2017-12-09T18:32:37.221Z,100340.30
2017-12-09T18:35:05.743Z,100346.66
2017-12-09T18:37:34.606Z,100341.41
2017-12-09T18:40:02.930Z,100335.72
2017-12-09T18:42:31.288Z,100335.95
2017-12-09T18:44:59.688Z,100336.05
2017-12-09T18:47:28.746Z,100332.67
2017-12-09T18:49:57.087Z,100343.20
2017-12-09T18:52:25.564Z,100342.03
2017-12-09T18:54:54.059Z,100341.64
2017-12-09T18:57:22.963Z,100348.95
2017-12-09T18:59:51.277Z,100345.92
2017-12-09T19:02:21.283Z,100342.45
2017-12-09T19:04:49.647Z,100354.05
2017-12-09T19:07:18.117Z,100345.17
2017-12-09T19:09:46.797Z,100347.49
2017-12-09T19:12:15.157Z,100345.14
2017-12-09T19:14:44.950Z,100344.16
2017-12-09T19:17:13.267Z,100351.67
2017-12-09T19:19:41.848Z,100342.63
2017-12-09T19:22:10.162Z,100350.79
2017-12-09T19:24:38.454Z,100339.42
2017-12-09T19:27:06.826Z,100345.11
2017-12-09T19:29:35.165Z,100341.00
2017-12-09T19:32:03.504Z,100338.23
2017-12-09T19:34:31.834Z,100329.63
2017-12-09T19:37:00.953Z,100333.69
2017-12-09T19:39:29.288Z,100332.73
2017-12-09T19:41:59.196Z,100328.66
2017-12-09T19:44:28.338Z,100332.47
2017-12-09T19:46:56.671Z,100320.88
2017-12-09T19:49:25.077Z,100318.72
2017-12-09T19:51:54.858Z,100313.39
2017-12-09T19:54:23.181Z,100321.95
2017-12-09T19:56:51.554Z,100310.33
2017-12-09T19:59:19.992Z,100312.64
2017-12-09T20:01:48.294Z,100304.27
2017-12-09T20:04:17.034Z,100310.02
2017-12-09T20:06:45.368Z,100315.36
2017-12-09T20:09:14.606Z,100315.25
2017-12-09T20:11:42.950Z,100308.33
2017-12-09T20:14:11.264Z,100301.23
2017-12-09T20:16:40.743Z,100296.59
2017-12-09T20:19:09.355Z,100296.62
2017-12-09T20:21:37.690Z,100295.00
2017-12-09T20:24:06.902Z,100285.70
2017-12-09T20:26:35.473Z,100282.16
2017-12-09T20:29:04.453Z,100279.63
2017-12-09T20:31:34.263Z,100297.81
2017-12-09T20:34:02.658Z,100292.09
2017-12-09T20:36:31.000Z,100290.35
2017-12-09T20:38:59.354Z,100292.91
2017-12-09T20:41:27.746Z,100287.97
2017-12-09T20:43:56.101Z,100292.81
2017-12-09T20:46:24.457Z,100288.02
2017-12-09T20:48:53.222Z,100281.63
2017-12-09T20:51:21.533Z,100270.89
2017-12-09T20:53:49.865Z,100283.19
2017-12-09T20:56:19.096Z,100280.58
2017-12-09T20:58:47.440Z,100276.05
2017-12-09T21:01:16.949Z,100281.00
2017-12-09T21:03:46.156Z,100280.64
2017-12-09T21:06:14.494Z,100278.39
2017-12-09T21:08:42.824Z,100283.64
2017-12-09T21:11:12.207Z,100290.54
2017-12-09T21:13:40.539Z,100290.27
2017-12-09T21:16:09.418Z,100278.55
2017-12-09T21:18:37.907Z,100277.23
2017-12-09T21:21:06.378Z,100274.13
2017-12-09T21:23:34.701Z,100280.27
2017-12-09T21:26:03.842Z,100281.54
2017-12-09T21:28:32.944Z,100270.66
2017-12-09T21:31:01.280Z,100282.34
2017-12-09T21:33:29.986Z,100267.14
2017-12-09T21:35:58.310Z,100259.44
2017-12-09T21:38:26.650Z,100269.23
2017-12-09T21:40:56.920Z,100268.44
2017-12-09T21:43:25.265Z,100276.41
2017-12-09T21:45:53.714Z,100280.59
2017-12-09T21:48:22.276Z,100284.88
2017-12-09T21:50:50.622Z,100276.05
2017-12-09T21:53:18.964Z,100279.64
2017-12-09T21:55:48.390Z,100278.21
2017-12-09T21:58:16.723Z,100281.16
2017-12-09T22:00:45.072Z,100273.06
2017-12-09T22:03:13.465Z,100272.97
2017-12-09T22:05:42.040Z,100278.16
2017-12-09T22:08:10.382Z,100267.25
2017-12-09T22:10:38.962Z,100273.92
2017-12-09T22:13:08.038Z,100264.01
2017-12-09T22:15:37.120Z,100258.97
2017-12-09T22:20:40.229Z,100251.22
2017-12-09T22:23:09.485Z,100251.80
2017-12-09T22:25:51.526Z,100248.23
2017-12-09T22:28:19.912Z,100249.68
2017-12-09T22:30:48.260Z,100240.73
2017-12-09T22:33:16.577Z,100245.78
2017-12-09T22:35:45.216Z,100245.48
2017-12-09T22:38:13.538Z,100252.16
2017-12-09T22:40:42.772Z,100248.70
2017-12-09T22:43:11.136Z,100243.43
2017-12-09T22:45:41.196Z,100246.78
2017-12-09T22:48:09.576Z,100243.64
2017-12-09T22:50:37.943Z,100237.03
2017-12-09T22:53:06.254Z,100230.80
2017-12-09T22:55:35.249Z,100227.31
2017-12-09T22:58:04.575Z,100236.20
2017-12-09T23:00:33.690Z,100224.00
2017-12-09T23:03:02.027Z,100224.46
2017-12-09T23:05:30.407Z,100230.04
2017-12-09T23:07:58.931Z,100219.24
2017-12-09T23:10:27.333Z,100218.69
2017-12-09T23:12:56.849Z,100218.17
2017-12-09T23:15:26.677Z,100212.06
2017-12-09T23:17:55.016Z,100209.53
2017-12-09T23:20:23.435Z,100206.23
2017-12-09T23:22:51.827Z,100206.28
2017-12-09T23:25:20.386Z,100205.34
2017-12-09T23:27:48.764Z,100207.95
2017-12-09T23:30:17.493Z,100198.97
2017-12-09T23:32:45.856Z,100198.83
2017-12-09T23:35:14.166Z,100195.62
